createdAt,value
2023-03-08T00:02:41.648Z,98827.97
2023-03-08T00:08:04.069Z,98822.88
2023-03-08T00:13:28.671Z,98853.78
2023-03-08T00:18:50.675Z,98863.25
2023-03-08T00:24:13.422Z,98872.22
2023-03-08T00:29:35.539Z,98858.69
2023-03-08T00:34:57.828Z,98867.03
2023-03-08T00:40:20.132Z,98880.69
2023-03-08T00:45:41.798Z,98877.28
2023-03-08T00:51:04.314Z,98887.28
2023-03-08T00:56:28.803Z,98885.22
2023-03-08T01:01:51.768Z,98895.16
2023-03-08T01:07:13.786Z,98895.44
2023-03-08T01:12:36.844Z,98882.16
2023-03-08T01:17:58.931Z,98866.47
2023-03-08T01:23:20.902Z,98907.56
2023-03-08T01:28:43.466Z,98894.09
2023-03-08T01:34:10.652Z,98895.44
2023-03-08T01:39:32.899Z,98916.09
2023-03-08T01:45:06.835Z,98907.00
2023-03-08T01:50:30.270Z,98912.41
2023-03-08T01:55:52.447Z,98911.63
2023-03-08T02:01:15.699Z,98911.31
2023-03-08T02:06:38.390Z,98938.25
2023-03-08T02:12:04.908Z,98919.28
2023-03-08T02:17:27.601Z,98952.16
2023-03-08T02:22:53.714Z,98952.16
2023-03-08T02:28:15.936Z,98958.59
2023-03-08T02:33:42.379Z,98962.41
2023-03-08T02:39:04.483Z,98946.19
2023-03-08T02:44:26.810Z,98984.31
2023-03-08T02:49:48.667Z,98964.13
2023-03-08T02:55:11.184Z,98962.38
2023-03-08T03:00:34.698Z,98983.00
2023-03-08T03:05:57.207Z,98965.53
2023-03-08T03:11:25.909Z,98935.50
2023-03-08T03:16:48.581Z,98959.59
2023-03-08T03:22:11.396Z,98969.75
2023-03-08T03:27:33.753Z,98963.41
2023-03-08T03:32:55.831Z,98965.31
2023-03-08T03:38:22.344Z,98931.84
2023-03-08T03:43:45.129Z,98946.97
2023-03-08T03:49:11.951Z,98990.38
2023-03-08T03:54:40.111Z,98966.78
2023-03-08T04:00:07.755Z,98982.47
2023-03-08T04:05:37.736Z,99007.56
2023-03-08T04:11:03.196Z,99009.91
2023-03-08T04:16:34.081Z,98986.72
2023-03-08T04:21:59.939Z,98986.94
2023-03-08T04:27:28.198Z,99011.66
2023-03-08T04:32:50.083Z,99008.88
2023-03-08T04:38:12.795Z,98996.38
2023-03-08T04:43:35.668Z,98997.69
2023-03-08T04:49:01.554Z,98983.00
2023-03-08T04:54:29.036Z,99026.47
2023-03-08T04:59:58.205Z,99003.72
2023-03-08T05:05:21.478Z,99023.03
2023-03-08T05:11:03.147Z,99041.56
2023-03-08T05:16:28.875Z,99023.53
2023-03-08T05:21:51.932Z,99020.38
2023-03-08T05:27:17.583Z,99029.78
2023-03-08T05:32:43.611Z,99021.88
2023-03-08T05:38:06.071Z,99015.81
2023-03-08T05:43:28.864Z,99047.59
2023-03-08T05:48:51.431Z,99040.72
2023-03-08T05:54:14.679Z,99038.91
2023-03-08T05:59:39.856Z,99058.31
2023-03-08T06:05:05.713Z,99055.56
2023-03-08T06:10:28.710Z,99064.81
2023-03-08T06:15:58.794Z,99072.78
2023-03-08T06:21:22.703Z,99082.69
2023-03-08T06:26:52.318Z,99082.47
2023-03-08T06:32:14.406Z,99071.94
2023-03-08T06:37:36.694Z,99078.59
2023-03-08T06:43:01.318Z,99060.09
2023-03-08T06:48:23.803Z,99108.44
2023-03-08T06:53:47.959Z,99092.97
2023-03-08T06:59:15.224Z,99088.06
2023-03-08T07:04:37.169Z,99098.13
2023-03-08T07:09:59.071Z,99105.94
2023-03-08T07:15:24.724Z,99063.34
2023-03-08T07:20:58.967Z,99077.47
2023-03-08T07:26:20.771Z,99118.13
2023-03-08T07:31:46.119Z,99078.88
2023-03-08T07:37:16.840Z,99103.63
2023-03-08T07:42:38.996Z,99116.72
2023-03-08T07:48:15.431Z,99115.97
2023-03-08T07:53:38.020Z,99106.56
2023-03-08T07:59:00.947Z,99099.91
2023-03-08T08:04:23.883Z,99089.97
2023-03-08T08:09:45.926Z,99088.69
2023-03-08T08:15:08.591Z,99084.25
2023-03-08T08:20:31.320Z,99091.03
2023-03-08T08:25:54.177Z,99071.53
2023-03-08T08:31:19.033Z,99069.09
2023-03-08T08:36:41.065Z,99087.34
2023-03-08T08:42:04.356Z,99058.69
2023-03-08T08:47:32.044Z,99051.81
2023-03-08T08:52:54.037Z,99054.56
2023-03-08T08:58:18.900Z,99043.28
2023-03-08T09:03:40.834Z,99040.03
2023-03-08T09:09:03.216Z,99044.53
2023-03-08T09:14:26.399Z,99049.94
2023-03-08T09:19:48.648Z,99055.66
2023-03-08T09:25:11.984Z,99035.56
2023-03-08T09:30:34.663Z,99063.91
2023-03-08T09:35:58.153Z,99047.84
2023-03-08T09:41:22.046Z,99056.59
2023-03-08T09:47:11.877Z,99052.78
2023-03-08T09:52:41.582Z,99028.81
2023-03-08T09:58:20.319Z,99024.84
2023-03-08T10:04:16.312Z,99030.81
2023-03-08T10:09:45.476Z,98988.81
2023-03-08T10:15:18.427Z,98978.28
2023-03-08T10:20:42.477Z,98989.63
2023-03-08T10:26:10.646Z,98978.69
2023-03-08T10:31:34.311Z,98969.84
2023-03-08T10:37:06.931Z,98968.28
2023-03-08T10:42:29.574Z,98954.94
2023-03-08T10:48:02.823Z,98951.13
2023-03-08T10:53:24.931Z,98957.69
2023-03-08T10:58:48.908Z,98938.50
2023-03-08T11:04:15.762Z,98932.31
2023-03-08T11:09:37.934Z,98918.69
2023-03-08T11:14:59.932Z,98908.22
2023-03-08T11:20:57.147Z,98915.06
2023-03-08T11:26:50.191Z,98898.06
2023-03-08T11:32:40.357Z,98882.72
2023-03-08T11:38:22.692Z,98863.06
2023-03-08T11:44:10.065Z,98855.63
2023-03-08T11:49:53.908Z,98844.44
2023-03-08T11:55:43.382Z,98850.66
2023-03-08T12:01:15.708Z,98804.88
2023-03-08T12:06:44.752Z,98808.19
2023-03-08T12:12:19.622Z,98785.25
2023-03-08T12:17:47.321Z,98759.22
2023-03-08T12:23:22.318Z,98789.97
2023-03-08T12:28:59.113Z,98786.00
2023-03-08T12:34:38.635Z,98781.13
2023-03-08T12:40:09.010Z,98748.66
2023-03-08T12:45:37.632Z,98758.50
2023-03-08T12:51:03.380Z,98751.75
2023-03-08T12:56:31.995Z,98721.41
2023-03-08T13:02:00.389Z,98747.94
2023-03-08T13:07:32.918Z,98746.13
2023-03-08T13:13:10.194Z,98766.59
2023-03-08T13:18:32.402Z,98760.28
2023-03-08T13:24:05.084Z,98735.00
2023-03-08T13:29:32.988Z,98726.41
2023-03-08T13:35:03.801Z,98721.91
2023-03-08T13:40:26.779Z,98712.31
2023-03-08T13:45:52.074Z,98704.19
2023-03-08T13:51:21.090Z,98681.38
2023-03-08T13:56:43.403Z,98673.41
2023-03-08T14:02:27.001Z,98678.56
2023-03-08T14:08:07.317Z,98664.59
2023-03-08T14:13:37.849Z,98626.00
2023-03-08T14:19:09.669Z,98613.78
2023-03-08T14:24:34.846Z,98626.50
2023-03-08T14:30:13.243Z,98600.75
2023-03-08T14:35:42.394Z,98585.59
2023-03-08T14:41:12.600Z,98604.13
2023-03-08T14:46:35.071Z,98575.59
2023-03-08T14:51:57.606Z,98569.13
2023-03-08T14:57:22.548Z,98598.56
2023-03-08T15:02:45.005Z,98594.41
2023-03-08T15:08:11.152Z,98581.47
2023-03-08T15:13:33.366Z,98539.91
2023-03-08T15:18:55.608Z,98547.75
2023-03-08T15:24:19.257Z,98543.75
2023-03-08T15:29:41.454Z,98526.72
2023-03-08T15:35:03.635Z,98517.72
2023-03-08T15:40:28.814Z,98486.25
2023-03-08T15:45:50.911Z,98495.50
2023-03-08T15:51:24.965Z,98485.94
2023-03-08T15:56:48.744Z,98432.72
2023-03-08T16:02:20.024Z,98424.91
2023-03-08T16:07:43.059Z,98455.34
2023-03-08T16:13:05.646Z,98425.06
2023-03-08T16:18:29.743Z,98414.03
2023-03-08T16:23:53.359Z,98398.69
2023-03-08T16:29:15.518Z,98388.72
2023-03-08T16:34:38.397Z,98397.56
2023-03-08T16:40:02.536Z,98368.66
2023-03-08T16:45:25.176Z,98358.13
2023-03-08T16:50:56.273Z,98373.34
2023-03-08T16:56:26.581Z,98324.28
2023-03-08T17:01:51.084Z,98331.28
2023-03-08T17:07:14.290Z,98298.19
2023-03-08T17:12:36.576Z,98263.13
2023-03-08T17:17:59.189Z,98279.41
2023-03-08T17:23:22.867Z,98285.94
2023-03-08T17:28:45.334Z,98230.88
2023-03-08T17:34:10.628Z,98229.34
2023-03-08T17:39:33.135Z,98237.88
2023-03-08T17:44:55.218Z,98210.91
2023-03-08T17:50:23.133Z,98218.19
2023-03-08T17:55:45.607Z,98208.94
2023-03-08T18:01:09.529Z,98201.09
2023-03-08T18:06:41.449Z,98174.63
2023-03-08T18:12:06.500Z,98176.31
2023-03-08T18:17:28.123Z,98185.13
2023-03-08T18:22:51.359Z,98119.88
2023-03-08T18:28:13.467Z,98137.16
2023-03-08T18:33:35.373Z,98121.81
2023-03-08T18:38:57.429Z,98100.97
2023-03-08T18:44:19.759Z,98104.53
2023-03-08T18:49:44.590Z,98091.84
2023-03-08T18:55:07.766Z,98108.88
2023-03-08T19:00:29.785Z,98082.16
2023-03-08T19:05:51.704Z,98078.53
2023-03-08T19:11:13.577Z,98066.38
2023-03-08T19:22:17.181Z,98020.94
2023-03-08T19:27:45.387Z,98026.03
2023-03-08T19:33:18.463Z,97988.22
2023-03-08T19:38:51.005Z,97943.31
2023-03-08T19:44:13.233Z,97953.41
2023-03-08T19:49:39.576Z,97960.59
2023-03-08T19:55:02.594Z,97933.44
2023-03-08T20:00:31.237Z,97913.94
2023-03-08T20:05:58.093Z,97893.31
2023-03-08T20:12:17.957Z,97888.13
2023-03-08T20:17:48.287Z,97855.94
2023-03-08T20:23:11.601Z,97837.47
2023-03-08T20:28:34.050Z,97851.47
2023-03-08T20:33:57.018Z,97813.47
2023-03-08T20:39:23.232Z,97807.44
2023-03-08T20:44:46.232Z,97795.84
2023-03-08T20:50:08.988Z,97785.84
2023-03-08T20:55:30.907Z,97759.97
2023-03-08T21:00:53.578Z,97762.13
2023-03-08T21:06:22.781Z,97765.56
2023-03-08T21:12:34.083Z,97769.00
2023-03-08T21:18:08.853Z,97762.69
2023-03-08T21:24:00.188Z,97715.97
2023-03-08T21:29:34.995Z,97744.50
2023-03-08T21:35:36.368Z,97710.75
2023-03-08T21:47:06.336Z,97703.59
2023-03-08T22:04:16.856Z,97704.66
2023-03-08T22:10:09.906Z,97703.59
2023-03-08T22:15:32.167Z,97712.53
2023-03-08T22:20:57.240Z,97711.72
2023-03-08T22:26:20.530Z,97684.25
2023-03-08T22:31:42.486Z,97714.28
2023-03-08T22:37:05.661Z,97710.56
2023-03-08T22:42:27.190Z,97688.09
2023-03-08T22:47:51.550Z,97671.72
2023-03-08T22:53:13.189Z,97690.91
2023-03-08T22:58:35.301Z,97694.84
2023-03-08T23:04:00.043Z,97693.75
2023-03-08T23:09:24.242Z,97690.28
2023-03-08T23:14:46.373Z,97689.97
2023-03-08T23:20:08.958Z,97664.94
2023-03-08T23:25:31.399Z,97700.22
2023-03-08T23:30:54.272Z,97699.69
2023-03-08T23:36:21.796Z,97675.44
2023-03-08T23:41:45.863Z,97680.44
2023-03-08T23:47:08.372Z,97699.47
2023-03-08T23:52:30.285Z,97696.59
2023-03-08T23:57:52.553Z,97675.81
